Time;durP1;ratioP1;P1;durP2;ratioP2;P2;SDS_P1;SDS_P2;PMS_P1;PMS_P2;Temp;Humidity;BMP_temperature;BMP_pressure;BME280_temperature;BME280_humidity;BME280_pressure;Samples;Min_cycle;Max_cycle;Signal;HPM_P1;HPM_P2
2022/06/07 00:01:00;;;;;;;13.85;7.93;;;12.30;99.90;;;;;;5084074;28;20127;-74
2022/06/07 00:03:26;;;;;;;12.15;7.07;;;12.20;99.90;;;;;;5085199;28;20513;-76
2022/06/07 00:05:52;;;;;;;11.18;6.78;;;12.30;99.90;;;;;;5084327;28;20047;-75
2022/06/07 00:08:18;;;;;;;8.60;7.07;;;12.30;99.90;;;;;;5084154;28;20404;-76
2022/06/07 00:10:48;;;;;;;11.80;6.50;;;12.20;99.90;;;;;;5080912;28;20132;-76
2022/06/07 00:13:14;;;;;;;17.77;8.07;;;12.20;99.90;;;;;;5103903;28;20047;-75
2022/06/07 00:15:41;;;;;;;13.40;7.28;;;12.30;99.90;;;;;;5067255;28;20309;-76
2022/06/07 00:18:07;;;;;;;10.52;6.03;;;12.20;99.90;;;;;;5084913;28;20035;-75
2022/06/07 00:20:34;;;;;;;11.32;5.82;;;12.30;99.90;;;;;;5066647;28;20047;-76
2022/06/07 00:23:00;;;;;;;11.50;7.85;;;12.40;99.90;;;;;;5090345;28;20124;-76
2022/06/07 00:25:26;;;;;;;9.73;5.22;;;12.30;99.90;;;;;;5074817;28;20066;-76
2022/06/07 00:27:52;;;;;;;13.25;7.05;;;12.30;99.90;;;;;;5085316;28;20372;-76
2022/06/07 00:30:18;;;;;;;9.77;6.47;;;12.30;99.90;;;;;;5085122;28;20034;-76
2022/06/07 00:32:44;;;;;;;14.88;7.10;;;12.30;99.90;;;;;;5085051;28;20040;-76
2022/06/07 00:35:11;;;;;;;10.68;6.82;;;12.30;99.90;;;;;;5083613;28;20409;-74
2022/06/07 00:37:37;;;;;;;10.43;6.18;;;12.30;99.90;;;;;;5085156;28;20027;-79
2022/06/07 00:40:03;;;;;;;9.38;6.38;;;12.30;99.90;;;;;;5085127;28;20538;-76
2022/06/07 00:42:29;;;;;;;7.50;6.63;;;12.40;99.90;;;;;;5067211;28;20048;-78
2022/06/07 00:44:55;;;;;;;15.25;6.07;;;12.40;99.90;;;;;;5085669;28;20055;-77
2022/06/07 00:47:24;;;;;;;12.50;6.88;;;12.30;99.90;;;;;;5084202;28;20046;-76
2022/06/07 00:50:01;;;;;;;8.07;7.13;;;12.40;99.90;;;;;;5083163;28;20648;-77
2022/06/07 00:52:29;;;;;;;8.77;7.28;;;12.30;99.90;;;;;;5077170;28;20857;-77
2022/06/07 00:54:56;;;;;;;14.20;7.22;;;12.40;99.90;;;;;;5085371;28;20145;-77
2022/06/07 00:57:22;;;;;;;14.27;8.13;;;12.40;99.90;;;;;;5083863;28;20072;-77
2022/06/07 00:59:49;;;;;;;15.60;8.70;;;12.40;99.90;;;;;;5085124;28;20460;-76
2022/06/07 01:02:14;;;;;;;14.30;7.78;;;12.40;99.90;;;;;;5085011;28;20111;-80
2022/06/07 01:04:40;;;;;;;11.85;8.15;;;12.30;99.90;;;;;;5097905;28;20126;-77
2022/06/07 01:12:35;;;;;;;15.55;8.23;;;12.40;99.90;;;;;;5085411;28;20047;-78
2022/06/07 01:15:03;;;;;;;14.50;8.30;;;12.30;99.90;;;;;;5084404;28;20544;-77
2022/06/07 01:17:29;;;;;;;8.40;7.20;;;12.30;99.90;;;;;;5064148;28;20048;-78
2022/06/07 01:19:54;;;;;;;10.27;8.13;;;12.40;99.90;;;;;;5083986;28;20051;-75
2022/06/07 01:22:20;;;;;;;15.25;8.23;;;12.40;99.90;;;;;;5049459;28;20047;-75
2022/06/07 01:24:46;;;;;;;13.30;7.80;;;12.40;99.90;;;;;;5066455;28;20043;-75
2022/06/07 01:27:12;;;;;;;13.25;7.93;;;12.30;99.90;;;;;;5084061;28;20059;-76
2022/06/07 01:29:39;;;;;;;10.23;7.70;;;12.40;99.90;;;;;;5083874;28;20046;-75
2022/06/07 01:32:05;;;;;;;15.02;8.57;;;12.40;99.90;;;;;;5083524;28;20047;-74
2022/06/07 01:34:32;;;;;;;18.00;8.63;;;12.40;99.90;;;;;;5083254;28;20050;-75
2022/06/07 01:36:59;;;;;;;11.05;7.60;;;12.50;99.90;;;;;;5087076;28;20398;-76
2022/06/07 01:42:12;;;;;;;12.73;7.88;;;12.40;99.90;;;;;;5083613;28;20051;-75
2022/06/07 01:44:41;;;;;;;11.38;7.43;;;12.40;99.90;;;;;;5084610;28;20457;-76
2022/06/07 01:47:10;;;;;;;10.40;7.10;;;12.50;99.90;;;;;;5065795;28;20048;-75
2022/06/07 01:49:37;;;;;;;13.82;9.10;;;12.50;99.90;;;;;;5082089;28;20054;-76
2022/06/07 01:52:05;;;;;;;17.90;7.68;;;12.40;99.90;;;;;;5082647;28;20040;-75
2022/06/07 01:54:31;;;;;;;13.30;8.50;;;12.50;99.90;;;;;;5084146;28;20079;-76
2022/06/07 01:56:56;;;;;;;11.45;7.07;;;12.40;99.90;;;;;;5072456;28;20071;-76
2022/06/07 01:59:22;;;;;;;13.82;7.55;;;12.50;99.90;;;;;;5084410;28;20684;-77
2022/06/07 02:01:49;;;;;;;11.65;7.75;;;12.40;99.90;;;;;;5065079;28;20127;-76
2022/06/07 02:04:15;;;;;;;12.50;7.65;;;12.50;99.90;;;;;;5065933;28;20060;-77
2022/06/07 02:06:41;;;;;;;15.05;8.82;;;12.50;99.90;;;;;;5088402;28;20040;-76
2022/06/07 02:09:07;;;;;;;24.08;8.20;;;12.40;99.90;;;;;;5094279;28;20109;-75
2022/06/07 02:11:35;;;;;;;13.68;8.35;;;12.40;99.90;;;;;;5086496;28;20090;-76
2022/06/07 02:14:01;;;;;;;12.80;7.30;;;12.50;99.90;;;;;;5081885;28;20111;-77
2022/06/07 02:16:27;;;;;;;16.55;8.35;;;12.40;99.90;;;;;;5083170;28;20127;-76
2022/06/07 02:18:53;;;;;;;14.25;7.80;;;12.40;99.90;;;;;;5082841;28;20437;-75
2022/06/07 02:21:21;;;;;;;11.30;7.88;;;12.50;99.90;;;;;;5080789;28;20777;-76
2022/06/07 02:23:47;;;;;;;14.52;8.77;;;12.60;99.90;;;;;;5083952;28;20048;-76
2022/06/07 02:26:16;;;;;;;15.50;9.23;;;12.50;99.90;;;;;;5064854;28;20036;-76
2022/06/07 02:28:48;;;;;;;13.10;8.07;;;12.60;99.90;;;;;;5081889;28;20044;-75
2022/06/07 02:31:14;;;;;;;20.77;10.80;;;12.50;99.90;;;;;;5065207;28;20093;-76
2022/06/07 02:33:41;;;;;;;20.30;11.30;;;12.60;99.90;;;;;;5064329;28;20052;-76
2022/06/07 02:36:08;;;;;;;11.40;8.38;;;12.60;99.90;;;;;;5081294;28;20093;-76
2022/06/07 02:38:34;;;;;;;13.85;7.90;;;12.60;99.90;;;;;;5072715;28;20107;-75
2022/06/07 02:41:02;;;;;;;13.77;8.15;;;12.50;99.90;;;;;;5090401;28;20065;-73
2022/06/07 02:43:29;;;;;;;15.38;8.57;;;12.60;99.90;;;;;;5083387;28;20071;-75
2022/06/07 02:45:55;;;;;;;11.52;8.75;;;12.50;99.90;;;;;;5082768;28;20032;-76
2022/06/07 02:48:21;;;;;;;11.95;9.40;;;12.60;99.90;;;;;;5086161;28;20049;-75
2022/06/07 02:50:47;;;;;;;18.13;9.93;;;12.60;99.90;;;;;;5082884;28;20589;-75
2022/06/07 02:53:13;;;;;;;17.65;9.23;;;12.50;99.90;;;;;;5091787;28;20047;-76
2022/06/07 02:55:39;;;;;;;15.10;10.52;;;12.60;99.90;;;;;;5082531;28;20118;-75
2022/06/07 02:58:05;;;;;;;17.45;10.05;;;12.60;99.90;;;;;;5083080;28;20047;-76
2022/06/07 03:00:31;;;;;;;13.38;8.57;;;12.50;99.90;;;;;;5083457;28;20037;-76
2022/06/07 03:02:57;;;;;;;13.27;9.60;;;12.60;99.90;;;;;;5064515;28;20039;-75
2022/06/07 03:05:23;;;;;;;14.40;8.80;;;12.50;99.90;;;;;;5067270;28;20047;-75
2022/06/07 03:07:50;;;;;;;20.65;9.52;;;12.60;99.90;;;;;;5068489;28;20131;-76
2022/06/07 03:10:17;;;;;;;17.65;9.93;;;12.50;99.90;;;;;;5085038;28;20082;-75
2022/06/07 03:12:43;;;;;;;12.55;9.15;;;12.60;99.90;;;;;;5096193;28;20406;-75
2022/06/07 03:15:10;;;;;;;10.40;8.35;;;12.60;99.90;;;;;;5068704;28;20131;-76
2022/06/07 03:17:37;;;;;;;15.93;8.57;;;12.70;99.90;;;;;;5086791;28;20077;-75
2022/06/07 03:20:05;;;;;;;15.63;9.48;;;12.60;99.90;;;;;;5078384;28;20097;-77
2022/06/07 03:22:30;;;;;;;14.07;8.38;;;12.60;99.90;;;;;;5086382;28;20059;-76
2022/06/07 03:24:56;;;;;;;14.48;7.68;;;12.60;99.90;;;;;;5086257;28;20173;-78
2022/06/07 03:27:22;;;;;;;13.38;8.57;;;12.60;99.90;;;;;;5085257;28;20497;-75
2022/06/07 03:29:47;;;;;;;15.18;8.55;;;12.60;99.90;;;;;;5086079;28;20114;-75
2022/06/07 03:32:13;;;;;;;12.85;7.75;;;12.60;99.90;;;;;;5088562;28;20141;-77
2022/06/07 03:34:39;;;;;;;13.35;7.03;;;12.60;99.90;;;;;;5085798;28;20150;-75
2022/06/07 03:37:06;;;;;;;14.80;6.43;;;12.50;99.90;;;;;;5085507;28;20046;-75
2022/06/07 03:39:31;;;;;;;12.70;7.25;;;12.50;99.90;;;;;;5085912;28;20232;-77
2022/06/07 03:41:57;;;;;;;16.98;6.82;;;12.50;99.90;;;;;;5087311;28;20118;-76
2022/06/07 03:44:23;;;;;;;11.43;6.40;;;12.50;99.90;;;;;;5086170;28;20837;-77
2022/06/07 03:46:49;;;;;;;11.50;5.60;;;12.50;99.90;;;;;;5086309;28;20058;-77
2022/06/07 03:49:15;;;;;;;10.73;6.57;;;12.40;99.90;;;;;;5086306;28;20048;-77
2022/06/07 03:51:41;;;;;;;17.67;6.93;;;12.40;99.90;;;;;;5089216;28;20052;-75
2022/06/07 03:54:07;;;;;;;15.70;6.65;;;12.30;99.90;;;;;;5086500;28;20300;-75
2022/06/07 03:56:34;;;;;;;13.48;7.05;;;12.30;99.90;;;;;;5086520;28;20036;-78
2022/06/07 03:59:01;;;;;;;8.05;6.15;;;12.20;99.90;;;;;;5086777;28;20050;-77
2022/06/07 04:01:28;;;;;;;11.50;6.50;;;12.20;99.90;;;;;;5083751;28;20044;-77
2022/06/07 04:03:59;;;;;;;11.40;6.70;;;12.20;99.90;;;;;;5089346;28;20623;-77
2022/06/07 04:06:30;;;;;;;12.65;8.02;;;12.20;99.90;;;;;;5076077;28;20043;-75
2022/06/07 04:08:56;;;;;;;11.00;6.78;;;12.00;99.90;;;;;;5084544;28;20028;-76
2022/06/07 04:11:23;;;;;;;9.60;7.15;;;12.10;99.90;;;;;;5048642;28;20135;-77
2022/06/07 04:13:51;;;;;;;17.65;8.05;;;12.00;99.90;;;;;;5067701;28;20048;-77
2022/06/07 04:16:20;;;;;;;24.67;7.60;;;11.90;99.90;;;;;;5066874;28;20637;-75
2022/06/07 04:18:46;;;;;;;13.43;6.65;;;12.00;99.90;;;;;;5089317;28;20050;-76
2022/06/07 04:21:13;;;;;;;31.88;9.10;;;11.80;99.90;;;;;;5067071;28;20119;-76
2022/06/07 04:23:38;;;;;;;11.95;6.40;;;12.00;99.90;;;;;;5085094;28;20048;-75
2022/06/07 04:26:07;;;;;;;20.63;7.05;;;12.00;99.90;;;;;;5084812;28;20457;-77
2022/06/07 04:28:33;;;;;;;11.70;5.80;;;11.90;99.90;;;;;;5084271;28;20093;-77
2022/06/07 04:30:58;;;;;;;17.27;8.10;;;11.90;99.90;;;;;;5084683;28;20044;-77
2022/06/07 04:33:24;;;;;;;18.10;6.93;;;12.00;99.90;;;;;;5084863;28;20134;-77
2022/06/07 04:35:49;;;;;;;17.80;7.32;;;12.00;99.90;;;;;;5082489;28;20047;-77
2022/06/07 04:38:15;;;;;;;13.93;7.07;;;12.10;99.90;;;;;;5085886;28;20031;-76
2022/06/07 04:40:43;;;;;;;10.68;6.38;;;12.10;99.90;;;;;;5085065;28;20090;-78
2022/06/07 04:43:09;;;;;;;10.88;7.22;;;12.10;99.90;;;;;;5069604;28;20069;-74
2022/06/07 04:45:37;;;;;;;11.40;6.97;;;12.10;99.90;;;;;;5084833;28;20115;-77
2022/06/07 04:48:04;;;;;;;7.80;6.60;;;12.10;99.90;;;;;;5066649;28;20478;-75
2022/06/07 04:50:30;;;;;;;12.55;6.97;;;12.10;99.90;;;;;;5069329;28;20047;-76
2022/06/07 04:52:56;;;;;;;12.00;7.13;;;12.20;99.90;;;;;;5085135;28;20058;-77
2022/06/07 04:55:21;;;;;;;9.65;8.18;;;12.00;99.90;;;;;;5083398;28;20039;-77
2022/06/07 04:57:47;;;;;;;12.00;7.30;;;12.10;99.90;;;;;;5086184;28;20040;-77
2022/06/07 05:00:14;;;;;;;13.75;8.05;;;12.10;99.90;;;;;;5066338;28;20077;-77
2022/06/07 05:02:42;;;;;;;16.17;6.45;;;12.20;99.90;;;;;;5085087;28;20047;-76
2022/06/07 05:05:09;;;;;;;20.38;7.38;;;12.10;99.90;;;;;;5079430;28;20060;-77
2022/06/07 05:07:37;;;;;;;7.70;6.65;;;12.10;99.90;;;;;;5062756;28;20556;-75
2022/06/07 05:10:08;;;;;;;7.25;5.05;;;12.20;99.90;;;;;;5082071;28;20036;-75
2022/06/07 05:12:34;;;;;;;12.13;5.75;;;12.10;99.90;;;;;;5066785;28;20044;-76
2022/06/07 05:15:00;;;;;;;9.07;5.57;;;12.10;99.90;;;;;;5083535;28;20048;-76
2022/06/07 05:17:26;;;;;;;15.15;4.70;;;12.10;99.90;;;;;;5084959;28;20095;-76
2022/06/07 05:19:51;;;;;;;8.10;4.88;;;12.10;99.90;;;;;;5082462;28;20085;-75
2022/06/07 05:22:18;;;;;;;10.70;4.40;;;12.10;99.90;;;;;;5067399;28;20667;-75
2022/06/07 05:24:43;;;;;;;5.70;4.47;;;12.10;99.90;;;;;;5083245;28;20509;-76
2022/06/07 05:27:15;;;;;;;10.30;4.30;;;12.10;99.90;;;;;;5084151;28;20048;-75
2022/06/07 05:29:54;;;;;;;13.35;4.85;;;12.20;99.90;;;;;;5091595;28;20040;-74
2022/06/07 05:32:20;;;;;;;13.50;4.82;;;12.20;99.90;;;;;;5084352;28;20495;-74
2022/06/07 05:34:47;;;;;;;6.18;2.75;;;12.20;99.90;;;;;;5065473;28;20097;-75
2022/06/07 05:37:15;;;;;;;12.50;3.63;;;12.20;99.90;;;;;;5084474;28;20047;-74
2022/06/07 05:39:41;;;;;;;14.95;4.32;;;12.10;99.90;;;;;;5083829;28;20093;-76
2022/06/07 05:42:12;;;;;;;10.30;3.10;;;12.10;99.90;;;;;;5086410;28;20440;-75
2022/06/07 05:44:38;;;;;;;9.40;3.47;;;12.20;99.90;;;;;;5069621;28;20541;-76
2022/06/07 05:47:04;;;;;;;5.43;2.95;;;12.10;99.90;;;;;;5084821;28;20036;-75
2022/06/07 05:49:30;;;;;;;8.05;2.65;;;12.20;99.90;;;;;;5087425;28;20501;-77
2022/06/07 05:51:56;;;;;;;6.43;3.25;;;12.20;99.90;;;;;;5084658;28;20144;-81
2022/06/07 05:54:23;;;;;;;7.65;3.45;;;12.20;99.90;;;;;;5084190;28;20052;-80
2022/06/07 05:56:49;;;;;;;6.13;3.67;;;12.20;99.90;;;;;;5083739;28;20044;-77
2022/06/07 05:59:15;;;;;;;6.13;3.42;;;12.20;99.90;;;;;;5065838;28;20062;-77
2022/06/07 06:01:41;;;;;;;8.55;3.03;;;12.20;99.90;;;;;;5063319;28;20089;-78
2022/06/07 06:04:07;;;;;;;14.88;5.25;;;12.20;99.90;;;;;;5083036;28;20466;-80
2022/06/07 06:06:34;;;;;;;7.18;3.13;;;12.00;99.90;;;;;;5083424;28;20036;-80
2022/06/07 06:11:45;;;;;;;7.93;3.08;;;12.10;99.90;;;;;;5066009;28;20113;-79
2022/06/07 06:14:11;;;;;;;4.95;2.45;;;12.00;99.90;;;;;;5065727;28;20490;-79
2022/06/07 06:16:37;;;;;;;8.15;3.63;;;12.00;99.90;;;;;;5062834;28;20105;-78
2022/06/07 06:19:05;;;;;;;10.38;3.35;;;12.00;99.90;;;;;;5081622;28;20547;-76
2022/06/07 06:21:40;;;;;;;3.33;1.85;;;12.00;99.90;;;;;;5083260;28;20564;-79
2022/06/07 06:24:09;;;;;;;12.55;2.25;;;12.00;99.90;;;;;;5080137;28;20507;-80
2022/06/07 06:26:36;;;;;;;7.55;2.45;;;11.90;99.90;;;;;;5083125;28;20085;-78
2022/06/07 06:29:02;;;;;;;4.25;2.42;;;11.90;99.90;;;;;;5080870;28;20052;-78
2022/06/07 06:31:28;;;;;;;10.15;2.40;;;12.00;99.90;;;;;;5083419;28;20089;-79
2022/06/07 06:33:55;;;;;;;11.45;2.55;;;11.80;99.90;;;;;;5063432;28;20093;-78
2022/06/07 06:36:24;;;;;;;5.85;2.60;;;12.00;99.90;;;;;;5081997;28;20134;-75
2022/06/07 06:38:50;;;;;;;4.73;2.50;;;11.80;99.90;;;;;;5081409;28;20552;-79
2022/06/07 06:41:22;;;;;;;10.63;2.42;;;11.90;99.90;;;;;;5082465;28;20052;-79
2022/06/07 06:43:50;;;;;;;12.85;2.65;;;11.90;99.90;;;;;;5083267;28;20044;-80
2022/06/07 06:46:22;;;;;;;6.10;1.20;;;11.90;99.90;;;;;;5083323;28;20785;-78
2022/06/07 06:48:49;;;;;;;8.65;1.88;;;11.80;99.90;;;;;;5060838;28;20048;-79
2022/06/07 06:51:19;;;;;;;7.85;1.75;;;11.80;99.90;;;;;;5082193;28;20563;-78
2022/06/07 06:53:45;;;;;;;8.65;2.35;;;11.90;99.90;;;;;;5082616;28;20047;-79
2022/06/07 06:56:12;;;;;;;9.25;1.83;;;11.90;99.90;;;;;;5048152;28;20044;-78
2022/06/07 06:58:39;;;;;;;9.60;2.15;;;11.90;99.90;;;;;;5082966;28;20468;-79
2022/06/07 07:01:11;;;;;;;11.73;2.80;;;12.00;99.90;;;;;;5082782;28;20093;-78
2022/06/07 07:03:39;;;;;;;9.48;2.05;;;12.00;99.90;;;;;;5082169;28;20457;-79
2022/06/07 07:06:07;;;;;;;9.32;3.50;;;12.10;99.90;;;;;;5082510;28;20044;-80
2022/06/07 07:08:35;;;;;;;8.90;1.55;;;12.10;99.90;;;;;;5079671;28;20089;-80
2022/06/07 07:11:26;;;;;;;8.20;1.55;;;12.10;99.90;;;;;;5084489;28;20440;-79
2022/06/07 07:13:54;;;;;;;8.30;2.90;;;12.10;99.90;;;;;;5076119;28;20041;-79
2022/06/07 07:16:26;;;;;;;7.25;2.00;;;12.30;99.90;;;;;;5079333;28;20033;-77
2022/06/07 07:18:52;;;;;;;10.27;2.75;;;12.50;99.90;;;;;;5057697;28;20622;-76
2022/06/07 07:21:33;;;;;;;8.35;1.95;;;12.60;99.90;;;;;;5080480;28;20084;-77
2022/06/07 07:24:00;;;;;;;7.55;1.67;;;12.70;99.90;;;;;;5060698;28;20114;-79
2022/06/07 07:26:29;;;;;;;8.85;2.08;;;12.60;99.90;;;;;;5079673;28;20078;-75
2022/06/07 07:28:55;;;;;;;11.35;2.22;;;12.90;99.90;;;;;;5083550;28;20624;-78
2022/06/07 07:31:23;;;;;;;13.18;2.15;;;13.00;99.90;;;;;;5083365;28;20044;-74
2022/06/07 07:33:50;;;;;;;8.85;3.05;;;13.40;99.90;;;;;;5084969;28;20093;-78
2022/06/07 07:36:17;;;;;;;6.15;2.33;;;13.30;99.90;;;;;;5086896;28;20046;-79
2022/06/07 07:38:43;;;;;;;5.03;2.22;;;13.20;99.90;;;;;;5067421;28;20043;-77
2022/06/07 07:41:22;;;;;;;8.77;2.38;;;13.10;99.90;;;;;;5082365;28;20543;-77
2022/06/07 07:43:50;;;;;;;5.00;2.03;;;13.30;99.90;;;;;;5079839;28;20085;-75
2022/06/07 07:46:17;;;;;;;9.05;2.28;;;13.50;99.90;;;;;;5077142;28;20055;-78
2022/06/07 07:48:43;;;;;;;16.63;2.42;;;13.40;99.90;;;;;;5082722;28;20047;-80
2022/06/07 07:51:15;;;;;;;6.22;2.35;;;13.50;99.90;;;;;;5066809;28;20062;-75
2022/06/07 07:53:40;;;;;;;6.55;2.38;;;13.50;99.90;;;;;;5096445;28;20047;-81
2022/06/07 07:56:07;;;;;;;8.85;3.10;;;13.40;99.90;;;;;;5068225;28;20044;-82
2022/06/07 07:58:33;;;;;;;8.88;2.15;;;13.50;99.90;;;;;;5085324;28;20090;-79
2022/06/07 08:00:59;;;;;;;10.93;3.15;;;13.50;99.90;;;;;;5086091;28;20083;-81
2022/06/07 08:03:26;;;;;;;5.32;1.70;;;13.70;99.90;;;;;;5087993;28;20454;-74
2022/06/07 08:05:51;;;;;;;11.13;2.28;;;13.80;99.90;;;;;;5085313;28;20039;-82
2022/06/07 08:08:17;;;;;;;4.28;2.05;;;13.80;99.90;;;;;;5086003;28;20048;-80
2022/06/07 08:10:43;;;;;;;9.00;2.47;;;14.00;99.90;;;;;;5071297;28;20136;-80
2022/06/07 08:13:09;;;;;;;7.80;2.42;;;14.20;99.90;;;;;;5094679;28;20542;-75
2022/06/07 08:15:35;;;;;;;11.65;2.55;;;14.10;99.90;;;;;;5086137;28;20082;-80
2022/06/07 08:18:02;;;;;;;20.20;3.17;;;14.00;99.90;;;;;;5083178;28;20063;-75
2022/06/07 08:20:30;;;;;;;9.57;2.20;;;14.00;99.90;;;;;;5084109;28;20533;-80
2022/06/07 08:22:56;;;;;;;12.65;3.25;;;13.90;99.90;;;;;;5085165;28;20071;-79
2022/06/07 08:25:22;;;;;;;14.05;2.85;;;14.00;99.90;;;;;;5084662;28;20032;-78
2022/06/07 08:27:48;;;;;;;12.68;3.22;;;14.10;99.90;;;;;;5083990;28;20096;-78
2022/06/07 08:30:15;;;;;;;6.13;1.80;;;14.10;99.90;;;;;;5070960;28;20040;-77
2022/06/07 08:32:41;;;;;;;6.60;2.67;;;14.10;99.90;;;;;;5073062;28;20048;-80
2022/06/07 08:37:56;;;;;;;7.32;2.15;;;14.30;99.90;;;;;;5085101;28;20079;-80
2022/06/07 08:40:33;;;;;;;10.48;2.72;;;14.10;99.90;;;;;;5084268;28;20048;-78
2022/06/07 08:43:05;;;;;;;13.98;2.65;;;13.90;99.90;;;;;;5085086;28;20087;-80
2022/06/07 08:45:35;;;;;;;4.18;1.35;;;13.80;99.90;;;;;;5065121;28;20056;-79
2022/06/07 08:48:05;;;;;;;5.68;1.50;;;14.00;99.90;;;;;;5095988;28;20052;-77
2022/06/07 08:50:44;;;;;;;9.30;1.38;;;14.00;99.90;;;;;;5102383;28;20094;-82
2022/06/07 08:53:13;;;;;;;7.63;1.50;;;13.80;99.90;;;;;;5068683;28;20113;-78
2022/06/07 08:55:54;;;;;;;9.23;1.65;;;13.90;99.90;;;;;;5114674;28;20411;-75
2022/06/07 08:58:36;;;;;;;5.68;1.13;;;14.00;99.90;;;;;;5090998;28;20096;-77
2022/06/07 09:01:35;;;;;;;5.75;2.22;;;14.10;99.90;;;;;;5097017;28;20035;-77
2022/06/07 09:04:06;;;;;;;8.00;1.73;;;14.30;99.90;;;;;;5046504;28;20182;-76
2022/06/07 09:06:43;;;;;;;8.05;3.05;;;14.40;99.90;;;;;;5090622;28;20054;-79
2022/06/07 09:09:10;;;;;;;8.15;1.30;;;14.60;99.90;;;;;;5090323;28;20090;-76
2022/06/07 09:14:33;;;;;;;9.43;1.92;;;15.10;99.90;;;;;;5080844;28;20047;-79
2022/06/07 09:17:02;;;;;;;9.52;1.60;;;15.00;99.90;;;;;;5101668;28;20116;-81
2022/06/07 09:19:30;;;;;;;9.88;2.55;;;14.90;99.90;;;;;;5085185;28;20079;-78
2022/06/07 09:21:58;;;;;;;6.25;1.25;;;15.00;99.90;;;;;;5082722;28;20033;-79
2022/06/07 09:24:50;;;;;;;9.98;2.85;;;15.20;99.90;;;;;;5085455;28;20048;-79
2022/06/07 09:27:20;;;;;;;11.82;3.28;;;14.90;99.90;;;;;;5071798;28;20036;-80
2022/06/07 09:29:49;;;;;;;;;;;14.70;99.90;;;;;;5085135;28;20202;-80
2022/06/07 09:32:18;;;;;;;16.20;1.95;;;14.60;99.90;;;;;;5081782;28;19920;-78
2022/06/07 09:34:56;;;;;;;4.05;1.30;;;14.50;99.90;;;;;;5084985;28;20040;-80
2022/06/07 09:37:39;;;;;;;9.88;2.50;;;14.40;99.90;;;;;;5104755;28;20134;-81
2022/06/07 09:40:22;;;;;;;16.08;3.17;;;14.30;99.90;;;;;;5084080;28;20047;-80
2022/06/07 09:43:00;;;;;;;6.78;1.30;;;14.30;99.90;;;;;;5084816;28;20043;-76
2022/06/07 09:45:38;;;;;;;7.10;1.20;;;14.40;99.90;;;;;;5080043;28;20054;-82
2022/06/07 09:48:19;;;;;;;6.82;3.10;;;14.60;99.90;;;;;;5084728;28;20043;-80
2022/06/07 09:51:06;;;;;;;10.10;2.40;;;14.70;99.90;;;;;;5092815;28;20416;-81
2022/06/07 09:53:41;;;;;;;4.85;1.23;;;14.50;99.90;;;;;;5068139;28;20088;-80
2022/06/07 09:56:24;;;;;;;5.90;1.33;;;14.30;99.90;;;;;;5083261;28;20128;-80
2022/06/07 09:59:20;;;;;;;11.25;2.00;;;14.30;99.90;;;;;;5045729;28;20094;-79
2022/06/07 10:01:58;;;;;;;4.60;1.48;;;14.30;99.90;;;;;;5076559;28;20048;-79
2022/06/07 10:04:39;;;;;;;9.75;2.45;;;14.20;99.90;;;;;;5073701;28;20880;-79
2022/06/07 10:07:22;;;;;;;14.05;3.10;;;14.20;99.90;;;;;;5084150;28;20117;-77
2022/06/07 10:10:26;;;;;;;11.98;2.97;;;14.30;99.90;;;;;;5063724;28;20071;-78
2022/06/07 10:13:20;;;;;;;8.10;1.33;;;14.30;99.90;;;;;;5028076;28;20044;-79
2022/06/07 10:15:58;;;;;;;16.45;3.75;;;14.30;99.90;;;;;;5071103;28;20480;-87
2022/06/07 10:18:48;;;;;;;13.57;3.28;;;14.40;99.90;;;;;;5080858;28;20112;-81
2022/06/07 10:21:37;;;;;;;13.50;2.38;;;14.50;99.90;;;;;;5077271;28;20048;-81
2022/06/07 10:24:14;;;;;;;6.95;1.48;;;14.60;99.90;;;;;;5082930;28;20035;-81
2022/06/07 10:26:53;;;;;;;8.82;2.15;;;14.60;99.90;;;;;;5078123;28;20039;-81
2022/06/07 10:29:32;;;;;;;7.55;1.67;;;14.50;99.90;;;;;;5080151;28;20429;-82
2022/06/07 10:32:25;;;;;;;7.43;1.98;;;14.30;99.90;;;;;;5077928;28;20075;-80
2022/06/07 10:35:15;;;;;;;5.85;1.88;;;14.20;99.90;;;;;;5082843;28;20061;-79
2022/06/07 10:38:01;;;;;;;13.48;2.80;;;14.10;99.90;;;;;;5063835;28;20048;-80
2022/06/07 10:40:58;;;;;;;11.98;3.33;;;14.20;99.90;;;;;;5065128;28;20052;-81
2022/06/07 10:43:32;;;;;;;6.93;1.33;;;14.20;99.90;;;;;;5083677;28;20093;-81
2022/06/07 10:46:00;;;;;;;8.00;2.00;;;14.30;99.90;;;;;;5048314;28;20062;-82
2022/06/07 10:48:35;;;;;;;3.78;1.75;;;14.40;99.90;;;;;;5077872;28;20052;-80
2022/06/07 10:54:22;;;;;;;11.45;2.25;;;14.50;99.90;;;;;;5065235;28;20040;-81
2022/06/07 10:57:01;;;;;;;4.05;1.00;;;14.60;99.90;;;;;;5065540;28;20056;-77
2022/06/07 10:59:29;;;;;;;9.27;1.60;;;14.80;99.90;;;;;;5088118;28;20036;-78
2022/06/07 11:02:11;;;;;;;4.38;0.82;;;15.00;99.90;;;;;;5073770;28;20046;-78
2022/06/07 11:10:48;;;;;;;10.52;1.85;;;15.20;99.90;;;;;;5085739;28;20036;-80
2022/06/07 11:13:39;;;;;;;7.22;1.52;;;15.20;99.90;;;;;;5096314;28;20126;-80
2022/06/07 11:16:17;;;;;;;4.15;1.23;;;15.30;99.90;;;;;;5092478;28;20044;-80
2022/06/07 11:18:43;;;;;;;8.57;1.70;;;15.40;99.90;;;;;;5085145;28;20036;-80
2022/06/07 11:21:33;;;;;;;6.75;0.90;;;15.30;99.90;;;;;;5083218;28;20363;-78
2022/06/07 11:24:16;;;;;;;5.20;1.10;;;15.10;99.90;;;;;;5070668;28;20158;-82
2022/06/07 11:27:11;;;;;;;6.88;1.27;;;15.10;99.90;;;;;;5077206;28;20127;-80
2022/06/07 11:29:36;;;;;;;5.70;1.40;;;15.10;99.90;;;;;;5066315;28;20032;-81
2022/06/07 11:32:03;;;;;;;8.57;1.45;;;15.10;99.90;;;;;;5087700;28;20063;-81
2022/06/07 11:34:31;;;;;;;10.18;2.00;;;15.20;99.90;;;;;;5068324;28;20131;-81
2022/06/07 11:37:15;;;;;;;9.98;2.60;;;15.10;99.90;;;;;;5088525;28;20153;-82
2022/06/07 11:39:44;;;;;;;7.20;1.60;;;15.20;99.90;;;;;;5079621;28;20115;-81
2022/06/07 11:42:27;;;;;;;8.93;2.03;;;15.20;99.90;;;;;;5084908;28;20394;-81
2022/06/07 11:45:26;;;;;;;8.63;1.92;;;15.50;99.90;;;;;;5067395;28;20044;-81
2022/06/07 11:48:15;;;;;;;10.15;1.88;;;15.50;99.90;;;;;;5050742;28;20086;-80
2022/06/07 11:50:45;;;;;;;7.85;1.42;;;15.60;99.90;;;;;;5075051;28;20721;-80
2022/06/07 11:53:20;;;;;;;14.82;2.58;;;15.60;99.90;;;;;;5083300;28;20043;-81
2022/06/07 11:55:48;;;;;;;8.68;1.55;;;15.70;99.90;;;;;;5104598;28;20286;-81
2022/06/07 11:58:13;;;;;;;10.40;1.92;;;15.60;99.90;;;;;;5091900;28;20040;-82
2022/06/07 12:00:45;;;;;;;11.45;2.58;;;16.00;99.90;;;;;;5107903;28;20134;-83
2022/06/07 12:03:25;;;;;;;4.20;1.42;;;16.20;99.90;;;;;;5072682;28;20048;-81
2022/06/07 12:06:05;;;;;;;13.93;2.97;;;16.20;99.90;;;;;;5075979;28;20032;-84
2022/06/07 12:08:47;;;;;;;8.57;2.00;;;15.90;99.90;;;;;;5086522;28;20062;-82
2022/06/07 12:11:26;;;;;;;6.80;2.00;;;15.80;99.90;;;;;;5067673;28;20044;-83
2022/06/07 12:13:57;;;;;;;6.75;1.48;;;15.80;99.90;;;;;;5081646;28;20466;-83
2022/06/07 12:16:32;;;;;;;5.47;1.48;;;15.60;99.90;;;;;;5092296;28;20071;-84
2022/06/07 12:18:59;;;;;;;11.80;2.30;;;15.60;99.90;;;;;;5084267;28;20040;-85
2022/06/07 12:21:26;;;;;;;14.45;3.15;;;15.50;99.90;;;;;;5047419;28;20039;-84
2022/06/07 12:24:09;;;;;;;5.18;1.20;;;15.60;99.90;;;;;;5088983;28;20043;-84
2022/06/07 12:26:34;;;;;;;5.97;1.17;;;15.60;99.90;;;;;;5071368;28;20036;-85
2022/06/07 12:29:17;;;;;;;5.10;1.35;;;15.60;99.90;;;;;;5086047;28;20414;-78
2022/06/07 12:31:47;;;;;;;7.55;1.45;;;15.70;99.90;;;;;;5093209;28;20035;-83
2022/06/07 12:34:20;;;;;;;6.85;1.05;;;15.50;99.90;;;;;;5102842;28;20047;-84
2022/06/07 12:36:52;;;;;;;6.25;2.00;;;15.50;99.90;;;;;;5098835;28;20042;-84
2022/06/07 12:39:18;;;;;;;12.18;1.55;;;15.50;99.90;;;;;;5087319;28;20040;-84
2022/06/07 12:41:54;;;;;;;9.77;2.38;;;15.40;99.90;;;;;;5069839;28;20036;-85
2022/06/07 12:44:41;;;;;;;11.32;2.00;;;15.40;99.90;;;;;;5068174;28;20054;-77
2022/06/07 12:47:21;;;;;;;20.52;2.97;;;15.30;99.90;;;;;;5086664;28;20041;-81
2022/06/07 12:49:47;;;;;;;6.88;1.38;;;15.70;99.90;;;;;;5097768;28;20430;-82
2022/06/07 12:52:25;;;;;;;8.00;2.20;;;15.60;99.90;;;;;;5082501;28;20044;-83
2022/06/07 12:54:54;;;;;;;7.70;1.40;;;15.60;99.90;;;;;;5066762;28;20089;-83
2022/06/07 12:57:28;;;;;;;9.30;1.88;;;15.70;99.90;;;;;;5088159;28;20131;-81
2022/06/07 13:00:00;;;;;;;5.45;1.25;;;15.60;99.90;;;;;;5050729;28;20051;-84
2022/06/07 13:02:43;;;;;;;4.88;1.10;;;16.10;99.90;;;;;;5078325;28;20448;-85
2022/06/07 13:05:16;;;;;;;5.28;1.88;;;16.40;99.90;;;;;;5087324;28;20109;-78
2022/06/07 13:07:48;;;;;;;9.35;1.92;;;16.30;99.90;;;;;;5066500;28;20162;-85
2022/06/07 13:10:19;;;;;;;4.97;1.40;;;16.30;99.90;;;;;;5106064;28;20040;-86
2022/06/07 13:12:49;;;;;;;10.38;3.63;;;16.30;99.90;;;;;;5082978;28;20040;-84
2022/06/07 13:15:22;;;;;;;13.63;1.88;;;16.40;99.90;;;;;;5112748;28;20050;-84
2022/06/07 13:18:00;;;;;;;7.80;1.63;;;16.30;99.90;;;;;;5099438;28;20102;-82
2022/06/07 13:20:31;;;;;;;6.93;1.40;;;16.20;99.90;;;;;;5110066;28;20043;-83
2022/06/07 13:22:57;;;;;;;6.28;1.35;;;16.20;99.90;;;;;;5111724;28;20066;-84